createdAt,value
2019-05-19T00:02:06.875Z,31.27
2019-05-19T00:04:34.063Z,35.55
2019-05-19T00:07:01.539Z,40.88
2019-05-19T00:09:28.552Z,61.25
2019-05-19T00:11:55.549Z,60.65
2019-05-19T00:14:23.849Z,132.25
2019-05-19T00:16:50.932Z,80.42
2019-05-19T00:19:26.431Z,77.60
2019-05-19T00:21:50.280Z,53.92
2019-05-19T00:24:17.882Z,63.28
2019-05-19T00:26:45.127Z,53.13
2019-05-19T00:29:12.043Z,66.60
2019-05-19T00:31:39.075Z,70.95
2019-05-19T00:34:06.184Z,92.75
2019-05-19T00:36:33.789Z,126.55
2019-05-19T00:39:00.927Z,43.70
2019-05-19T00:41:29.253Z,40.50
2019-05-19T00:43:56.370Z,36.28
2019-05-19T00:46:24.270Z,38.08
2019-05-19T00:48:51.472Z,31.60
2019-05-19T00:51:19.738Z,32.17
2019-05-19T00:53:47.151Z,29.40
2019-05-19T00:56:15.566Z,28.90
2019-05-19T00:58:45.374Z,35.68
2019-05-19T01:01:12.790Z,26.20
2019-05-19T01:03:40.043Z,25.05
2019-05-19T01:06:07.667Z,29.80
2019-05-19T01:08:35.116Z,27.37
2019-05-19T01:11:02.842Z,31.48
2019-05-19T01:13:30.331Z,32.90
2019-05-19T01:15:57.947Z,29.92
2019-05-19T01:18:25.135Z,35.92
2019-05-19T01:20:52.342Z,35.43
2019-05-19T01:23:19.708Z,39.05
2019-05-19T01:25:47.452Z,45.33
2019-05-19T01:28:14.855Z,53.73
2019-05-19T01:30:42.931Z,56.13
2019-05-19T01:33:10.339Z,34.40
2019-05-19T01:35:38.151Z,27.98
2019-05-19T01:38:05.369Z,28.07
2019-05-19T01:40:32.656Z,29.57
2019-05-19T01:43:00.063Z,23.42
2019-05-19T01:45:28.286Z,23.32
2019-05-19T01:47:55.701Z,20.85
2019-05-19T01:50:23.200Z,21.65
2019-05-19T01:52:50.908Z,21.62
2019-05-19T01:55:19.068Z,23.98
2019-05-19T01:57:46.198Z,24.70
2019-05-19T02:00:14.175Z,22.50
2019-05-19T02:02:41.262Z,19.87
2019-05-19T02:05:08.898Z,21.57
2019-05-19T02:07:36.333Z,19.90
2019-05-19T02:10:08.807Z,22.05
2019-05-19T02:12:38.367Z,22.73
2019-05-19T02:15:06.344Z,26.48
2019-05-19T02:17:33.925Z,30.23
2019-05-19T02:20:01.100Z,27.87
2019-05-19T02:22:28.446Z,34.80
2019-05-19T02:24:55.456Z,28.52
2019-05-19T02:27:22.996Z,30.25
2019-05-19T02:29:50.375Z,27.77
2019-05-19T02:32:17.628Z,29.23
2019-05-19T02:34:45.111Z,29.67
2019-05-19T02:37:12.362Z,25.40
2019-05-19T02:39:39.821Z,27.13
2019-05-19T02:42:08.163Z,26.60
2019-05-19T02:44:57.576Z,25.10
2019-05-19T02:47:26.128Z,21.12
2019-05-19T02:49:54.717Z,22.30
2019-05-19T02:52:22.447Z,21.60
2019-05-19T02:54:50.637Z,17.90
2019-05-19T02:57:18.273Z,19.77
2019-05-19T02:59:45.902Z,23.65
2019-05-19T03:02:14.579Z,21.68
2019-05-19T03:04:41.844Z,24.10
2019-05-19T03:07:09.596Z,22.93
2019-05-19T03:09:37.196Z,18.15
2019-05-19T03:12:04.257Z,18.85
2019-05-19T03:14:31.968Z,15.40
2019-05-19T03:16:59.092Z,13.32
2019-05-19T03:19:26.138Z,15.40
2019-05-19T03:21:54.304Z,16.25
2019-05-19T03:24:21.436Z,15.83
2019-05-19T03:26:50.040Z,18.30
2019-05-19T03:29:19.955Z,33.55
2019-05-19T03:31:47.325Z,88.40
2019-05-19T03:34:15.697Z,61.45
2019-05-19T03:36:42.734Z,31.30
2019-05-19T03:39:10.242Z,37.90
2019-05-19T03:41:37.582Z,35.73
2019-05-19T03:44:04.880Z,56.40
2019-05-19T03:46:32.006Z,62.80
2019-05-19T03:48:59.052Z,33.88
2019-05-19T03:51:30.671Z,64.25
2019-05-19T03:53:56.900Z,131.47
2019-05-19T03:56:23.912Z,62.40
2019-05-19T03:58:51.419Z,32.55
2019-05-19T04:01:18.560Z,33.45
2019-05-19T04:03:45.820Z,39.55
2019-05-19T04:06:13.238Z,52.65
2019-05-19T04:08:40.728Z,62.03
2019-05-19T04:11:07.931Z,39.38
2019-05-19T04:13:35.134Z,45.08
2019-05-19T04:16:02.423Z,28.05
2019-05-19T04:18:29.587Z,18.37
2019-05-19T04:20:56.897Z,19.02
2019-05-19T04:23:23.835Z,17.02
2019-05-19T04:25:51.234Z,16.12
2019-05-19T04:28:18.356Z,15.93
2019-05-19T04:30:45.531Z,16.73
2019-05-19T04:33:12.577Z,16.17
2019-05-19T04:35:39.488Z,17.37
2019-05-19T04:38:06.747Z,20.40
2019-05-19T04:40:34.876Z,18.62
2019-05-19T04:43:02.073Z,14.30
2019-05-19T04:45:28.969Z,17.70
2019-05-19T04:47:55.891Z,15.55
2019-05-19T04:50:23.148Z,13.32
2019-05-19T04:52:50.560Z,16.62
2019-05-19T04:55:17.734Z,16.80
2019-05-19T04:57:44.751Z,24.32
2019-05-19T05:00:12.810Z,28.62
2019-05-19T05:02:39.830Z,25.15
2019-05-19T05:05:07.244Z,24.50
2019-05-19T05:07:34.354Z,18.62
2019-05-19T05:10:01.568Z,13.53
2019-05-19T05:12:29.601Z,26.68
2019-05-19T05:14:57.382Z,30.65
2019-05-19T05:17:24.599Z,16.48
2019-05-19T05:19:51.846Z,17.40
2019-05-19T05:22:21.961Z,13.05
2019-05-19T05:24:47.992Z,11.55
2019-05-19T05:27:14.989Z,11.75
2019-05-19T05:29:42.371Z,11.57
2019-05-19T05:32:09.661Z,10.60
2019-05-19T05:34:36.671Z,8.28
2019-05-19T05:37:03.732Z,8.88
2019-05-19T05:39:30.749Z,8.73
2019-05-19T05:41:57.659Z,10.05
2019-05-19T05:44:24.687Z,8.40
2019-05-19T05:46:54.106Z,8.55
2019-05-19T05:49:21.718Z,8.48
2019-05-19T05:51:49.041Z,7.87
2019-05-19T05:54:16.317Z,7.62
2019-05-19T05:56:43.343Z,7.58
2019-05-19T05:59:10.493Z,7.47
2019-05-19T06:01:37.380Z,7.65
2019-05-19T06:04:04.897Z,8.48
2019-05-19T06:06:32.420Z,8.58
2019-05-19T06:08:59.567Z,9.43
2019-05-19T06:11:26.567Z,7.58
2019-05-19T06:13:53.528Z,8.35
2019-05-19T06:16:20.419Z,7.92
2019-05-19T06:18:47.688Z,8.13
2019-05-19T06:21:14.699Z,8.23
2019-05-19T06:23:42.072Z,8.20
2019-05-19T06:26:09.080Z,8.13
2019-05-19T06:28:36.026Z,7.90
2019-05-19T06:31:04.181Z,8.75
2019-05-19T06:33:31.098Z,8.78
2019-05-19T06:35:58.508Z,8.25
2019-05-19T06:38:25.535Z,7.42
2019-05-19T06:40:53.029Z,7.75
2019-05-19T06:43:20.027Z,7.37
2019-05-19T06:45:47.022Z,7.12
2019-05-19T06:48:14.343Z,7.47
2019-05-19T06:50:41.556Z,9.68
2019-05-19T06:53:13.905Z,7.37
2019-05-19T06:55:40.050Z,7.42
2019-05-19T06:58:07.583Z,7.40
2019-05-19T07:00:34.866Z,8.33
2019-05-19T07:03:02.097Z,6.60
2019-05-19T07:05:29.197Z,6.83
2019-05-19T07:07:56.395Z,6.87
2019-05-19T07:10:23.445Z,8.78
2019-05-19T07:12:50.591Z,7.28
2019-05-19T07:15:20.024Z,7.03
2019-05-19T07:17:47.239Z,6.90
2019-05-19T07:20:16.359Z,7.15
2019-05-19T07:22:43.713Z,7.03
2019-05-19T07:25:11.256Z,6.78
2019-05-19T07:27:38.283Z,6.25
2019-05-19T07:30:06.264Z,6.05
2019-05-19T07:32:33.969Z,6.20
2019-05-19T07:35:01.411Z,6.30
2019-05-19T07:37:29.648Z,6.90
2019-05-19T07:39:56.691Z,7.35
2019-05-19T07:42:23.616Z,7.45
2019-05-19T07:44:50.595Z,8.05
2019-05-19T07:47:17.751Z,7.37
2019-05-19T07:49:44.851Z,6.75
2019-05-19T07:52:12.146Z,6.87
2019-05-19T07:54:39.151Z,7.80
2019-05-19T07:57:06.552Z,8.00
2019-05-19T07:59:33.566Z,8.33
2019-05-19T08:02:00.816Z,8.40
2019-05-19T08:04:27.715Z,9.10
2019-05-19T08:06:55.034Z,7.22
2019-05-19T08:09:22.136Z,7.72
2019-05-19T08:11:49.650Z,7.15
2019-05-19T08:14:16.747Z,9.73
2019-05-19T08:16:43.741Z,6.67
2019-05-19T08:19:10.731Z,8.93
2019-05-19T08:21:38.110Z,7.45
2019-05-19T08:24:05.170Z,6.28
2019-05-19T08:26:32.405Z,7.72
2019-05-19T08:29:00.010Z,6.28
2019-05-19T08:31:27.100Z,7.40
2019-05-19T08:33:54.237Z,8.30
2019-05-19T08:36:21.181Z,8.60
2019-05-19T08:38:48.307Z,7.28
2019-05-19T08:41:15.607Z,6.05
2019-05-19T08:43:42.646Z,8.23
2019-05-19T08:46:09.860Z,5.80
2019-05-19T08:48:37.180Z,6.80
2019-05-19T08:51:04.221Z,4.75
2019-05-19T08:53:31.377Z,6.60
2019-05-19T08:55:58.237Z,5.83
2019-05-19T08:58:25.228Z,4.20
2019-05-19T09:00:52.435Z,4.53
2019-05-19T09:03:19.458Z,4.58
2019-05-19T09:05:48.001Z,4.25
2019-05-19T09:08:15.183Z,4.37
2019-05-19T09:10:42.949Z,4.20
2019-05-19T09:13:10.300Z,5.58
2019-05-19T09:15:38.286Z,4.78
2019-05-19T09:18:05.585Z,2.75
2019-05-19T09:20:35.534Z,6.62
2019-05-19T09:23:02.673Z,4.20
2019-05-19T09:25:29.564Z,3.70
2019-05-19T09:27:56.993Z,4.58
2019-05-19T09:30:24.404Z,3.75
2019-05-19T09:32:51.327Z,5.15
2019-05-19T09:35:21.219Z,5.33
2019-05-19T09:37:48.210Z,2.58
2019-05-19T09:40:15.952Z,4.05
2019-05-19T09:42:43.058Z,3.30
2019-05-19T09:45:10.800Z,3.12
2019-05-19T09:47:39.299Z,3.72
2019-05-19T09:50:07.295Z,3.42
2019-05-19T09:52:34.331Z,3.55
2019-05-19T09:55:02.039Z,3.42
2019-05-19T09:57:29.706Z,3.52
2019-05-19T09:59:57.244Z,3.25
2019-05-19T10:02:24.366Z,4.65
2019-05-19T10:04:51.333Z,5.47
2019-05-19T10:07:18.444Z,3.92
2019-05-19T10:09:57.097Z,4.03
2019-05-19T10:12:24.529Z,4.92
2019-05-19T10:14:52.030Z,4.42
2019-05-19T10:17:19.354Z,4.97
2019-05-19T10:19:46.834Z,4.85
2019-05-19T10:22:14.223Z,5.40
2019-05-19T10:24:56.354Z,4.55
2019-05-19T10:27:10.953Z,4.50
2019-05-19T10:29:38.215Z,7.40
2019-05-19T10:32:05.420Z,5.22
2019-05-19T10:34:32.807Z,5.25
2019-05-19T10:37:00.099Z,4.92
2019-05-19T10:39:27.043Z,11.08
2019-05-19T10:41:54.223Z,5.25
2019-05-19T10:44:21.450Z,3.95
2019-05-19T10:46:48.510Z,4.08
2019-05-19T10:49:15.414Z,4.33
2019-05-19T10:51:42.953Z,4.37
2019-05-19T10:54:09.949Z,5.53
2019-05-19T10:56:36.862Z,5.10
2019-05-19T10:59:04.187Z,5.37
2019-05-19T11:01:31.236Z,5.22
2019-05-19T11:03:58.498Z,5.03
2019-05-19T11:06:25.614Z,4.15
2019-05-19T11:08:52.634Z,4.28
2019-05-19T11:11:19.849Z,3.92
2019-05-19T11:13:46.968Z,4.53
2019-05-19T11:16:14.215Z,4.53
2019-05-19T11:18:41.962Z,4.55
2019-05-19T11:21:09.028Z,4.58
2019-05-19T11:23:36.039Z,4.75
2019-05-19T11:26:03.353Z,6.85
2019-05-19T11:28:30.476Z,5.90
2019-05-19T11:30:57.499Z,5.58
2019-05-19T11:33:24.450Z,7.05
2019-05-19T11:35:51.447Z,6.17
2019-05-19T11:38:18.567Z,6.58
2019-05-19T11:40:45.787Z,7.25
2019-05-19T11:43:12.704Z,9.50
2019-05-19T11:45:40.043Z,8.38
2019-05-19T11:48:07.088Z,9.73
2019-05-19T11:50:34.076Z,7.47
2019-05-19T11:53:01.037Z,5.17
2019-05-19T11:55:27.944Z,7.20
2019-05-19T11:57:55.195Z,8.63
2019-05-19T12:00:22.342Z,4.03
2019-05-19T12:02:49.539Z,3.85
2019-05-19T12:05:17.665Z,7.42
2019-05-19T12:07:44.627Z,3.00
2019-05-19T12:10:12.092Z,3.55
2019-05-19T12:12:39.486Z,2.75
2019-05-19T12:15:07.597Z,3.12
2019-05-19T12:17:34.665Z,3.15
2019-05-19T12:20:02.231Z,3.35
2019-05-19T12:22:29.023Z,4.17
2019-05-19T12:24:56.487Z,5.53
2019-05-19T12:27:23.759Z,3.33
2019-05-19T12:29:50.772Z,3.20
2019-05-19T12:32:17.976Z,4.33
2019-05-19T12:34:44.887Z,3.20
2019-05-19T12:37:12.035Z,3.15
2019-05-19T12:39:39.090Z,4.40
2019-05-19T12:42:06.739Z,3.10
2019-05-19T12:44:33.755Z,3.15
2019-05-19T12:47:00.945Z,3.45
2019-05-19T12:49:28.055Z,2.98
2019-05-19T12:51:55.126Z,3.25
2019-05-19T12:54:22.182Z,5.65
2019-05-19T12:56:49.315Z,5.12
2019-05-19T12:59:16.275Z,2.87
2019-05-19T13:01:43.416Z,2.52
2019-05-19T13:04:10.864Z,3.83
2019-05-19T13:06:37.977Z,3.87
2019-05-19T13:09:05.392Z,3.20
2019-05-19T13:11:32.414Z,3.52
2019-05-19T13:13:59.348Z,3.45
2019-05-19T13:16:26.297Z,3.70
2019-05-19T13:18:53.531Z,3.85
2019-05-19T13:21:20.752Z,4.12
2019-05-19T13:23:48.091Z,4.80
2019-05-19T13:26:15.127Z,4.97
2019-05-19T13:28:42.068Z,4.08
2019-05-19T13:31:09.079Z,3.85
2019-05-19T13:33:36.048Z,6.90
2019-05-19T13:36:03.276Z,3.60
2019-05-19T13:38:30.490Z,8.05
2019-05-19T13:40:57.496Z,3.55
2019-05-19T13:43:26.240Z,3.45
2019-05-19T13:45:54.008Z,3.17
2019-05-19T13:48:21.111Z,5.05
2019-05-19T13:50:48.135Z,4.08
2019-05-19T13:53:15.119Z,3.62
2019-05-19T13:55:42.219Z,3.00
2019-05-19T13:58:09.651Z,3.40
2019-05-19T14:00:36.785Z,3.42
2019-05-19T14:03:04.038Z,3.20
2019-05-19T14:05:31.033Z,4.92
2019-05-19T14:07:58.225Z,4.08
2019-05-19T14:10:25.316Z,3.20
2019-05-19T14:12:52.295Z,6.03
2019-05-19T14:15:19.588Z,3.37
2019-05-19T14:17:46.886Z,3.12
2019-05-19T14:20:14.588Z,2.90
2019-05-19T14:22:41.623Z,3.90
2019-05-19T14:25:09.765Z,2.87
2019-05-19T14:27:36.894Z,4.42
2019-05-19T14:30:06.060Z,3.62
2019-05-19T14:32:33.763Z,3.77
2019-05-19T14:35:00.736Z,4.87
2019-05-19T14:37:27.918Z,3.90
2019-05-19T14:39:54.946Z,3.55
2019-05-19T14:42:41.994Z,6.12
2019-05-19T14:45:10.215Z,4.83
2019-05-19T14:47:56.364Z,3.77
2019-05-19T14:50:24.536Z,6.00
2019-05-19T14:52:51.891Z,6.55
2019-05-19T14:55:19.317Z,4.08
2019-05-19T14:57:46.458Z,4.67
2019-05-19T15:00:16.696Z,4.78
2019-05-19T15:02:43.998Z,3.75
2019-05-19T15:05:11.963Z,5.55
2019-05-19T15:07:38.972Z,3.90
2019-05-19T15:10:07.204Z,4.45
2019-05-19T15:12:34.508Z,4.95
2019-05-19T15:15:04.071Z,3.62
2019-05-19T15:17:31.250Z,5.70
2019-05-19T15:19:58.706Z,4.08
2019-05-19T15:22:25.609Z,4.87
2019-05-19T15:24:52.954Z,4.42
2019-05-19T15:27:19.960Z,4.72
2019-05-19T15:29:47.149Z,19.82
2019-05-19T15:32:14.326Z,13.48
2019-05-19T15:34:41.606Z,10.55
2019-05-19T15:37:08.527Z,12.43
2019-05-19T15:39:35.914Z,10.55
2019-05-19T15:42:03.351Z,17.67
2019-05-19T15:44:30.435Z,12.37
2019-05-19T15:46:57.762Z,11.00
2019-05-19T15:49:24.777Z,6.60
2019-05-19T15:52:02.122Z,5.83
2019-05-19T15:54:20.591Z,14.75
2019-05-19T15:56:48.111Z,7.78
2019-05-19T15:59:15.516Z,4.55
2019-05-19T16:01:42.560Z,4.05
2019-05-19T16:04:09.631Z,4.55
2019-05-19T16:06:39.033Z,5.22
2019-05-19T16:09:06.378Z,4.15
2019-05-19T16:11:33.662Z,24.82
2019-05-19T16:14:00.656Z,42.00
2019-05-19T16:16:27.655Z,14.13
2019-05-19T16:18:54.952Z,8.20
2019-05-19T16:21:22.145Z,6.78
2019-05-19T16:23:49.422Z,5.97
2019-05-19T16:26:16.740Z,5.15
2019-05-19T16:28:43.602Z,7.95
2019-05-19T16:31:10.815Z,7.33
2019-05-19T16:33:37.883Z,6.33
2019-05-19T16:36:07.762Z,5.53
2019-05-19T16:38:33.981Z,6.50
2019-05-19T16:41:00.792Z,7.85
2019-05-19T16:43:27.654Z,6.90
2019-05-19T16:45:54.850Z,6.87
2019-05-19T16:48:23.485Z,8.23
2019-05-19T16:50:51.007Z,17.48
2019-05-19T16:53:18.019Z,47.50
2019-05-19T16:55:46.325Z,14.87
2019-05-19T16:58:21.051Z,8.25
2019-05-19T17:00:43.124Z,9.55
2019-05-19T17:03:10.026Z,12.80
2019-05-19T17:05:37.093Z,12.85
2019-05-19T17:08:04.303Z,10.38
2019-05-19T17:10:31.483Z,11.50
2019-05-19T17:12:58.892Z,11.05
2019-05-19T17:15:26.156Z,11.88
2019-05-19T17:17:53.269Z,8.45
2019-05-19T17:20:20.598Z,20.95
2019-05-19T17:22:47.507Z,23.47
2019-05-19T17:25:14.827Z,35.92
2019-05-19T17:27:41.820Z,225.03
2019-05-19T17:30:10.096Z,67.90
2019-05-19T17:32:37.402Z,44.63
2019-05-19T17:35:05.235Z,18.67
2019-05-19T17:37:32.176Z,11.88
2019-05-19T17:39:59.248Z,19.55
2019-05-19T17:42:26.420Z,24.65
2019-05-19T17:44:53.632Z,19.67
2019-05-19T17:47:21.186Z,11.33
2019-05-19T17:49:48.471Z,10.15
2019-05-19T17:52:15.986Z,12.50
2019-05-19T17:54:43.317Z,8.88
2019-05-19T17:57:10.664Z,10.88
2019-05-19T17:59:42.070Z,15.28
2019-05-19T18:02:08.996Z,17.05
2019-05-19T18:04:36.288Z,13.00
2019-05-19T18:07:03.799Z,11.00
2019-05-19T18:09:30.835Z,14.38
2019-05-19T18:11:57.648Z,16.73
2019-05-19T18:14:24.696Z,16.70
2019-05-19T18:16:51.623Z,30.08
2019-05-19T18:19:18.738Z,27.55
2019-05-19T18:21:46.121Z,22.37
2019-05-19T18:24:13.425Z,26.55
2019-05-19T18:26:40.776Z,17.20
2019-05-19T18:29:07.853Z,16.70
2019-05-19T18:31:34.963Z,11.83
2019-05-19T18:34:02.006Z,13.28
2019-05-19T18:36:29.156Z,9.00
2019-05-19T18:38:56.165Z,11.03
2019-05-19T18:41:23.444Z,10.32
2019-05-19T18:43:50.776Z,18.23
2019-05-19T18:46:18.223Z,23.02
2019-05-19T18:48:45.461Z,17.40
2019-05-19T18:51:12.849Z,18.32
2019-05-19T18:53:40.106Z,23.07
2019-05-19T18:56:07.154Z,31.80
2019-05-19T18:58:34.809Z,42.30
2019-05-19T19:01:02.358Z,45.08
2019-05-19T19:03:29.533Z,64.87
2019-05-19T19:05:56.467Z,72.12
2019-05-19T19:08:23.602Z,37.93
2019-05-19T19:10:50.669Z,28.62
2019-05-19T19:13:17.964Z,17.82
2019-05-19T19:15:45.064Z,22.52
2019-05-19T19:18:11.983Z,21.77
2019-05-19T19:20:39.286Z,20.75
2019-05-19T19:23:06.522Z,13.50
2019-05-19T19:25:33.822Z,16.25
2019-05-19T19:28:01.068Z,16.27
2019-05-19T19:30:28.067Z,16.20
2019-05-19T19:32:55.407Z,17.05
2019-05-19T19:35:22.541Z,16.73
2019-05-19T19:37:49.690Z,21.07
2019-05-19T19:40:28.210Z,25.77
2019-05-19T19:42:57.179Z,20.10
2019-05-19T19:45:24.526Z,18.95
2019-05-19T19:47:51.768Z,17.35
2019-05-19T19:50:19.092Z,15.50
2019-05-19T19:52:46.441Z,14.73
2019-05-19T19:55:13.471Z,10.53
2019-05-19T19:57:40.771Z,12.00
2019-05-19T20:00:17.905Z,11.57
2019-05-19T20:02:37.199Z,11.85
2019-05-19T20:05:04.857Z,10.55
2019-05-19T20:07:31.970Z,12.75
2019-05-19T20:10:00.062Z,10.50
2019-05-19T20:12:27.276Z,8.25
2019-05-19T20:14:54.621Z,8.05
2019-05-19T20:17:21.964Z,8.93
2019-05-19T20:19:49.138Z,9.73
2019-05-19T20:22:16.184Z,9.58
2019-05-19T20:24:43.413Z,8.83
2019-05-19T20:27:10.676Z,5.97
2019-05-19T20:29:38.162Z,6.78
2019-05-19T20:32:05.125Z,7.80
2019-05-19T20:34:32.497Z,8.25
2019-05-19T20:36:59.514Z,16.45
2019-05-19T20:39:26.645Z,29.80
2019-05-19T20:41:53.825Z,34.85
2019-05-19T20:44:20.850Z,37.13
2019-05-19T20:46:48.541Z,40.03
2019-05-19T20:49:15.792Z,41.02
2019-05-19T20:51:42.933Z,37.98
2019-05-19T20:54:10.242Z,31.02
2019-05-19T20:56:37.375Z,29.30
2019-05-19T20:59:04.383Z,29.25
2019-05-19T21:01:31.536Z,36.23
2019-05-19T21:03:58.629Z,35.23
2019-05-19T21:06:25.939Z,38.08
2019-05-19T21:08:53.105Z,40.55
2019-05-19T21:11:20.355Z,38.92
2019-05-19T21:13:47.456Z,36.70
2019-05-19T21:16:14.521Z,37.28
2019-05-19T21:18:41.523Z,35.05
2019-05-19T21:21:08.681Z,37.38
2019-05-19T21:23:36.047Z,40.95
2019-05-19T21:26:03.275Z,35.52
2019-05-19T21:28:30.542Z,40.03
2019-05-19T21:31:05.269Z,41.25
2019-05-19T21:33:26.491Z,33.67
2019-05-19T21:35:53.796Z,37.67
2019-05-19T21:38:21.141Z,34.20
2019-05-19T21:40:47.930Z,38.80
2019-05-19T21:43:15.105Z,36.77
2019-05-19T21:45:42.319Z,38.23
2019-05-19T21:48:09.450Z,39.33
2019-05-19T21:50:36.429Z,39.65
2019-05-19T21:53:06.380Z,37.38
2019-05-19T21:55:32.310Z,37.28
2019-05-19T21:57:59.243Z,33.40
2019-05-19T22:00:28.457Z,36.70
2019-05-19T22:02:55.662Z,33.38
2019-05-19T22:05:23.154Z,36.68
2019-05-19T22:07:59.068Z,34.25
2019-05-19T22:10:26.511Z,34.23
2019-05-19T22:12:53.324Z,38.58
2019-05-19T22:15:20.881Z,31.65
2019-05-19T22:17:47.968Z,34.13
2019-05-19T22:20:15.132Z,35.33
2019-05-19T22:22:42.310Z,37.67
2019-05-19T22:25:09.570Z,36.73
2019-05-19T22:27:36.653Z,35.78
2019-05-19T22:30:05.272Z,36.83
2019-05-19T22:32:32.337Z,38.90
2019-05-19T22:34:59.375Z,37.15
2019-05-19T22:37:26.277Z,34.27
2019-05-19T22:39:53.615Z,35.92
2019-05-19T22:42:20.960Z,40.05
2019-05-19T22:44:48.193Z,31.73
2019-05-19T22:47:15.256Z,32.55
2019-05-19T22:49:42.268Z,32.58
2019-05-19T22:52:09.435Z,33.78
2019-05-19T22:54:36.714Z,32.28
2019-05-19T22:57:04.172Z,27.62
2019-05-19T22:59:31.927Z,33.05
2019-05-19T23:01:58.887Z,33.55
2019-05-19T23:04:26.749Z,32.40
2019-05-19T23:06:53.798Z,34.58
2019-05-19T23:09:21.132Z,33.33
2019-05-19T23:11:48.128Z,35.45
2019-05-19T23:14:17.861Z,32.53
2019-05-19T23:16:47.026Z,29.48
2019-05-19T23:19:14.179Z,29.35
2019-05-19T23:21:41.562Z,26.33
2019-05-19T23:24:08.720Z,31.02
2019-05-19T23:26:35.726Z,26.80
2019-05-19T23:29:03.159Z,33.63
2019-05-19T23:31:31.293Z,27.95
2019-05-19T23:33:58.504Z,30.37
2019-05-19T23:36:25.778Z,32.75
2019-05-19T23:38:52.876Z,26.87
2019-05-19T23:41:19.835Z,25.90
2019-05-19T23:43:46.745Z,26.27
2019-05-19T23:46:13.650Z,24.35
2019-05-19T23:48:40.635Z,24.02
2019-05-19T23:51:07.717Z,20.82
2019-05-19T23:53:34.822Z,20.92
2019-05-19T23:56:02.104Z,22.42
2019-05-19T23:58:29.189Z,19.45
